sensor_id;sensor_type;location;lat;lon;timestamp;pressure;altitude;pressure_sealevel;temperature;humidity
64064;BME280;50314;50.618;10.642;2023-10-08T00:00:44;97209.94;;;18.60;29.77
64064;BME280;50314;50.618;10.642;2023-10-08T00:03:15;97208.28;;;18.59;29.19
64064;BME280;50314;50.618;10.642;2023-10-08T00:05:43;97206.44;;;18.59;29.25
64064;BME280;50314;50.618;10.642;2023-10-08T00:08:09;97211.78;;;18.59;29.42
64064;BME280;50314;50.618;10.642;2023-10-08T00:10:38;97213.75;;;18.57;29.46
64064;BME280;50314;50.618;10.642;2023-10-08T00:13:08;97211.00;;;18.49;29.74
64064;BME280;50314;50.618;10.642;2023-10-08T00:15:38;97212.38;;;18.53;29.29
64064;BME280;50314;50.618;10.642;2023-10-08T00:18:07;97206.09;;;18.54;29.69
64064;BME280;50314;50.618;10.642;2023-10-08T00:20:35;97224.75;;;18.54;29.19
64064;BME280;50314;50.618;10.642;2023-10-08T00:23:09;97211.41;;;18.54;29.69
64064;BME280;50314;50.618;10.642;2023-10-08T00:25:35;97204.25;;;18.54;29.59
64064;BME280;50314;50.618;10.642;2023-10-08T00:28:09;97207.88;;;18.53;29.29
64064;BME280;50314;50.618;10.642;2023-10-08T00:30:39;97217.72;;;18.53;29.45
64064;BME280;50314;50.618;10.642;2023-10-08T00:33:07;97206.22;;;18.52;29.39
64064;BME280;50314;50.618;10.642;2023-10-08T00:35:41;97204.00;;;18.48;29.47
64064;BME280;50314;50.618;10.642;2023-10-08T00:38:09;97186.00;;;18.50;29.37
64064;BME280;50314;50.618;10.642;2023-10-08T00:40:46;97187.72;;;18.51;29.18
64064;BME280;50314;50.618;10.642;2023-10-08T00:43:31;97180.31;;;18.45;29.82
64064;BME280;50314;50.618;10.642;2023-10-08T00:46:04;97186.31;;;18.47;29.42
64064;BME280;50314;50.618;10.642;2023-10-08T00:48:46;97188.00;;;18.48;29.64
64064;BME280;50314;50.618;10.642;2023-10-08T00:51:13;97173.69;;;18.49;29.27
64064;BME280;50314;50.618;10.642;2023-10-08T00:53:57;97178.19;;;18.48;29.26
64064;BME280;50314;50.618;10.642;2023-10-08T00:56:32;97181.69;;;18.49;29.41
64064;BME280;50314;50.618;10.642;2023-10-08T00:59:17;97186.31;;;18.47;29.69
64064;BME280;50314;50.618;10.642;2023-10-08T01:01:46;97186.31;;;18.47;29.59
64064;BME280;50314;50.618;10.642;2023-10-08T01:04:20;97189.16;;;18.45;29.36
64064;BME280;50314;50.618;10.642;2023-10-08T01:06:51;97191.81;;;18.45;29.54
64064;BME280;50314;50.618;10.642;2023-10-08T01:09:21;97189.97;;;18.46;29.36
64064;BME280;50314;50.618;10.642;2023-10-08T01:12:11;97182.56;;;18.40;29.73
64064;BME280;50314;50.618;10.642;2023-10-08T01:14:53;97183.09;;;18.43;29.66
64064;BME280;50314;50.618;10.642;2023-10-08T01:17:20;97190.28;;;18.43;29.63
64064;BME280;50314;50.618;10.642;2023-10-08T01:19:50;97199.28;;;18.42;29.36
64064;BME280;50314;50.618;10.642;2023-10-08T01:22:16;97192.94;;;18.43;29.69
64064;BME280;50314;50.618;10.642;2023-10-08T01:24:48;97194.78;;;18.42;29.27
64064;BME280;50314;50.618;10.642;2023-10-08T01:27:18;97194.25;;;18.39;29.82
64064;BME280;50314;50.618;10.642;2023-10-08T01:29:49;97202.06;;;18.40;29.31
64064;BME280;50314;50.618;10.642;2023-10-08T01:32:16;97196.91;;;18.39;29.47
64064;BME280;50314;50.618;10.642;2023-10-08T01:34:43;97198.56;;;18.40;29.70
64064;BME280;50314;50.618;10.642;2023-10-08T01:37:21;97204.38;;;18.35;29.44
64064;BME280;50314;50.618;10.642;2023-10-08T01:39:47;97201.25;;;18.40;29.75
64064;BME280;50314;50.618;10.642;2023-10-08T01:42:15;97202.25;;;18.39;29.76
64064;BME280;50314;50.618;10.642;2023-10-08T01:44:49;97198.75;;;18.38;29.30
64064;BME280;50314;50.618;10.642;2023-10-08T01:47:16;97187.25;;;18.38;29.75
64064;BME280;50314;50.618;10.642;2023-10-08T01:49:42;97193.53;;;18.37;29.47
64064;BME280;50314;50.618;10.642;2023-10-08T01:52:10;97201.69;;;18.35;29.33
64064;BME280;50314;50.618;10.642;2023-10-08T01:54:49;97189.38;;;18.34;29.33
64064;BME280;50314;50.618;10.642;2023-10-08T01:57:15;97203.53;;;18.35;29.83
64064;BME280;50314;50.618;10.642;2023-10-08T01:59:42;97205.22;;;18.36;29.70
64064;BME280;50314;50.618;10.642;2023-10-08T02:02:09;97203.53;;;18.35;29.40
64064;BME280;50314;50.618;10.642;2023-10-08T02:04:35;97197.38;;;18.34;29.52
64064;BME280;50314;50.618;10.642;2023-10-08T02:07:04;97203.84;;;18.31;29.58
64064;BME280;50314;50.618;10.642;2023-10-08T02:09:33;97204.66;;;18.32;29.34
64064;BME280;50314;50.618;10.642;2023-10-08T02:11:59;97203.84;;;18.31;29.68
64064;BME280;50314;50.618;10.642;2023-10-08T02:14:25;97208.34;;;18.31;29.81
64064;BME280;50314;50.618;10.642;2023-10-08T02:16:50;97212.84;;;18.30;29.35
64064;BME280;50314;50.618;10.642;2023-10-08T02:19:21;97222.63;;;18.30;29.39
64064;BME280;50314;50.618;10.642;2023-10-08T02:21:53;97220.13;;;18.28;29.81
64064;BME280;50314;50.618;10.642;2023-10-08T02:24:20;97217.47;;;18.28;29.72
64064;BME280;50314;50.618;10.642;2023-10-08T02:26:50;97211.28;;;18.28;29.46
64064;BME280;50314;50.618;10.642;2023-10-08T02:29:16;97222.09;;;18.26;29.86
64064;BME280;50314;50.618;10.642;2023-10-08T02:31:42;97227.44;;;18.26;29.58
64064;BME280;50314;50.618;10.642;2023-10-08T02:34:09;97230.09;;;18.26;29.39
64064;BME280;50314;50.618;10.642;2023-10-08T02:36:36;97236.41;;;18.25;29.84
64064;BME280;50314;50.618;10.642;2023-10-08T02:39:04;97238.38;;;18.23;29.39
64064;BME280;50314;50.618;10.642;2023-10-08T02:41:43;97236.72;;;18.22;29.82
64064;BME280;50314;50.618;10.642;2023-10-08T02:44:12;97243.72;;;18.23;29.55
64064;BME280;50314;50.618;10.642;2023-10-08T02:46:48;97242.88;;;18.23;29.84
64064;BME280;50314;50.618;10.642;2023-10-08T02:49:19;97246.84;;;18.19;29.53
64064;BME280;50314;50.618;10.642;2023-10-08T02:51:57;97242.34;;;18.19;29.55
64064;BME280;50314;50.618;10.642;2023-10-08T02:54:23;97238.72;;;18.20;29.84
64064;BME280;50314;50.618;10.642;2023-10-08T02:56:57;97243.19;;;18.20;29.52
64064;BME280;50314;50.618;10.642;2023-10-08T02:59:33;97250.50;;;18.18;29.77
64064;BME280;50314;50.618;10.642;2023-10-08T03:02:11;97258.34;;;18.19;29.52
64064;BME280;50314;50.618;10.642;2023-10-08T03:04:44;97260.34;;;18.17;29.51
64064;BME280;50314;50.618;10.642;2023-10-08T03:07:14;97259.47;;;18.17;29.80
64064;BME280;50314;50.618;10.642;2023-10-08T03:09:58;97245.47;;;18.15;29.82
64064;BME280;50314;50.618;10.642;2023-10-08T03:12:46;97249.13;;;18.14;29.98
64064;BME280;50314;50.618;10.642;2023-10-08T03:15:12;97245.47;;;18.15;29.57
64064;BME280;50314;50.618;10.642;2023-10-08T03:17:40;97234.81;;;18.15;29.58
64064;BME280;50314;50.618;10.642;2023-10-08T03:20:17;97226.81;;;18.15;29.57
64064;BME280;50314;50.618;10.642;2023-10-08T03:23:04;97242.94;;;18.13;29.93
64064;BME280;50314;50.618;10.642;2023-10-08T03:25:37;97256.97;;;18.15;29.73
64064;BME280;50314;50.618;10.642;2023-10-08T03:28:08;97273.94;;;18.14;29.80
64064;BME280;50314;50.618;10.642;2023-10-08T03:30:34;97262.44;;;18.14;29.57
64064;BME280;50314;50.618;10.642;2023-10-08T03:33:13;97268.63;;;18.14;29.90
64064;BME280;50314;50.618;10.642;2023-10-08T03:35:50;97255.41;;;18.13;29.88
64064;BME280;50314;50.618;10.642;2023-10-08T03:38:20;97251.88;;;18.12;29.75
64064;BME280;50314;50.618;10.642;2023-10-08T03:41:25;97259.06;;;18.12;29.59
64064;BME280;50314;50.618;10.642;2023-10-08T03:43:54;97264.53;;;18.10;29.88
64064;BME280;50314;50.618;10.642;2023-10-08T03:46:39;97256.56;;;18.10;29.56
64064;BME280;50314;50.618;10.642;2023-10-08T03:49:11;97260.19;;;18.09;29.48
64064;BME280;50314;50.618;10.642;2023-10-08T03:51:46;97253.00;;;18.09;29.94
64064;BME280;50314;50.618;10.642;2023-10-08T03:54:11;97253.88;;;18.10;29.97
64064;BME280;50314;50.618;10.642;2023-10-08T03:56:37;97249.50;;;18.09;29.84
64064;BME280;50314;50.618;10.642;2023-10-08T03:59:03;97244.19;;;18.09;29.55
64064;BME280;50314;50.618;10.642;2023-10-08T04:01:39;97229.03;;;18.09;29.60
64064;BME280;50314;50.618;10.642;2023-10-08T04:04:06;97235.34;;;18.08;29.57
64064;BME280;50314;50.618;10.642;2023-10-08T04:06:37;97231.84;;;18.08;29.63
64064;BME280;50314;50.618;10.642;2023-10-08T04:09:05;97229.19;;;18.08;30.05
64064;BME280;50314;50.618;10.642;2023-10-08T04:11:33;97244.34;;;18.07;30.03
64064;BME280;50314;50.618;10.642;2023-10-08T04:14:15;97244.47;;;18.06;29.92
64064;BME280;50314;50.618;10.642;2023-10-08T04:16:43;97236.47;;;18.06;29.92
64064;BME280;50314;50.618;10.642;2023-10-08T04:19:09;97222.31;;;18.05;29.49
64064;BME280;50314;50.618;10.642;2023-10-08T04:21:36;97202.81;;;18.05;29.61
64064;BME280;50314;50.618;10.642;2023-10-08T04:24:02;97216.16;;;18.05;29.62
64064;BME280;50314;50.618;10.642;2023-10-08T04:26:31;97212.50;;;18.06;29.59
64064;BME280;50314;50.618;10.642;2023-10-08T04:28:59;97225.81;;;18.06;29.50
64064;BME280;50314;50.618;10.642;2023-10-08T04:31:31;97208.16;;;18.05;29.53
64064;BME280;50314;50.618;10.642;2023-10-08T04:34:06;97197.50;;;18.05;30.04
64064;BME280;50314;50.618;10.642;2023-10-08T04:36:45;97188.78;;;18.03;29.87
64064;BME280;50314;50.618;10.642;2023-10-08T04:39:14;97182.50;;;18.04;29.91
64064;BME280;50314;50.618;10.642;2023-10-08T04:41:47;97180.50;;;18.06;29.61
64064;BME280;50314;50.618;10.642;2023-10-08T04:44:13;97183.75;;;18.00;29.84
64064;BME280;50314;50.618;10.642;2023-10-08T04:46:41;97176.19;;;18.05;29.93
64064;BME280;50314;50.618;10.642;2023-10-08T04:49:16;97169.19;;;18.04;29.78
64064;BME280;50314;50.618;10.642;2023-10-08T04:52:04;97162.31;;;18.01;29.95
64064;BME280;50314;50.618;10.642;2023-10-08T04:54:38;97169.84;;;18.06;29.83
64064;BME280;50314;50.618;10.642;2023-10-08T04:57:07;97186.53;;;18.08;29.95
64064;BME280;50314;50.618;10.642;2023-10-08T04:59:44;97186.38;;;18.09;29.87
64064;BME280;50314;50.618;10.642;2023-10-08T05:02:12;97188.22;;;18.09;29.55
64064;BME280;50314;50.618;10.642;2023-10-08T05:04:49;97194.53;;;18.08;29.61
64064;BME280;50314;50.618;10.642;2023-10-08T05:07:34;97183.88;;;18.08;29.85
64064;BME280;50314;50.618;10.642;2023-10-08T05:10:12;97190.22;;;18.07;29.76
64064;BME280;50314;50.618;10.642;2023-10-08T05:12:51;97201.69;;;18.07;29.83
64064;BME280;50314;50.618;10.642;2023-10-08T05:15:37;97218.53;;;18.08;29.91
64064;BME280;50314;50.618;10.642;2023-10-08T05:18:07;97249.50;;;18.09;29.65
64064;BME280;50314;50.618;10.642;2023-10-08T05:20:39;97244.19;;;18.09;30.06
64064;BME280;50314;50.618;10.642;2023-10-08T05:23:15;97251.34;;;18.08;29.59
64064;BME280;50314;50.618;10.642;2023-10-08T05:25:53;97254.19;;;18.07;30.15
64064;BME280;50314;50.618;10.642;2023-10-08T05:28:32;97256.69;;;18.08;29.99
64064;BME280;50314;50.618;10.642;2023-10-08T05:31:11;97263.13;;;18.06;29.74
64064;BME280;50314;50.618;10.642;2023-10-08T05:33:42;97261.19;;;18.08;30.09
64064;BME280;50314;50.618;10.642;2023-10-08T05:36:11;97257.50;;;18.09;30.12
64064;BME280;50314;50.618;10.642;2023-10-08T05:38:43;97253.88;;;18.10;29.70
64064;BME280;50314;50.618;10.642;2023-10-08T05:41:27;97247.56;;;18.11;29.75
64064;BME280;50314;50.618;10.642;2023-10-08T05:44:17;97280.53;;;18.10;29.80
64064;BME280;50314;50.618;10.642;2023-10-08T05:46:45;97283.19;;;18.10;29.83
64064;BME280;50314;50.618;10.642;2023-10-08T05:49:32;97287.53;;;18.11;30.05
64064;BME280;50314;50.618;10.642;2023-10-08T05:51:58;97273.22;;;18.12;29.87
64064;BME280;50314;50.618;10.642;2023-10-08T05:54:31;97278.53;;;18.12;30.20
64064;BME280;50314;50.618;10.642;2023-10-08T05:56:59;97281.22;;;18.12;30.01
64064;BME280;50314;50.618;10.642;2023-10-08T05:59:42;97269.00;;;18.09;30.06
64064;BME280;50314;50.618;10.642;2023-10-08T06:02:20;97251.06;;;18.12;29.74
64064;BME280;50314;50.618;10.642;2023-10-08T06:05:00;97239.56;;;18.11;30.13
64064;BME280;50314;50.618;10.642;2023-10-08T06:07:47;97225.53;;;18.09;30.12
64064;BME280;50314;50.618;10.642;2023-10-08T06:10:20;97239.56;;;18.11;29.84
64064;BME280;50314;50.618;10.642;2023-10-08T06:12:59;97232.56;;;18.10;29.83
64064;BME280;50314;50.618;10.642;2023-10-08T06:18:27;97237.88;;;18.10;29.99
64064;BME280;50314;50.618;10.642;2023-10-08T06:20:57;97258.63;;;18.16;30.04
64064;BME280;50314;50.618;10.642;2023-10-08T06:23:30;97264.13;;;18.15;29.86
64064;BME280;50314;50.618;10.642;2023-10-08T06:26:01;97275.63;;;18.15;29.62
64064;BME280;50314;50.618;10.642;2023-10-08T06:28:40;97281.94;;;18.14;29.61
64064;BME280;50314;50.618;10.642;2023-10-08T06:31:07;97288.25;;;18.13;29.82
64064;BME280;50314;50.618;10.642;2023-10-08T06:33:38;97298.91;;;18.13;30.07
64064;BME280;50314;50.618;10.642;2023-10-08T06:36:04;97291.88;;;18.12;29.88
64064;BME280;50314;50.618;10.642;2023-10-08T06:38:31;97306.06;;;18.13;29.83
64064;BME280;50314;50.618;10.642;2023-10-08T06:40:57;97313.09;;;18.14;29.72
64064;BME280;50314;50.618;10.642;2023-10-08T06:43:28;97320.22;;;18.13;30.11
64064;BME280;50314;50.618;10.642;2023-10-08T06:45:54;97320.94;;;18.15;29.85
64064;BME280;50314;50.618;10.642;2023-10-08T06:48:24;97328.94;;;18.15;29.72
64064;BME280;50314;50.618;10.642;2023-10-08T06:50:52;97334.09;;;18.17;29.70
64064;BME280;50314;50.618;10.642;2023-10-08T06:53:22;97333.28;;;18.16;29.79
64064;BME280;50314;50.618;10.642;2023-10-08T06:55:48;97344.94;;;18.15;30.03
64064;BME280;50314;50.618;10.642;2023-10-08T06:58:20;97343.94;;;18.16;29.76
64064;BME280;50314;50.618;10.642;2023-10-08T07:00:46;97354.59;;;18.16;30.09
64064;BME280;50314;50.618;10.642;2023-10-08T07:03:13;97365.25;;;18.16;30.10
64064;BME280;50314;50.618;10.642;2023-10-08T07:05:47;97361.19;;;18.12;30.26
64064;BME280;50314;50.618;10.642;2023-10-08T07:08:32;97372.84;;;18.11;30.25
64064;BME280;50314;50.618;10.642;2023-10-08T07:11:00;97378.16;;;18.11;30.60
64064;BME280;50314;50.618;10.642;2023-10-08T07:13:27;97374.50;;;18.12;30.59
64064;BME280;50314;50.618;10.642;2023-10-08T07:15:55;97382.50;;;18.12;30.43
64064;BME280;50314;50.618;10.642;2023-10-08T07:18:21;97376.22;;;18.13;30.51
64064;BME280;50314;50.618;10.642;2023-10-08T07:20:55;97369.19;;;18.12;30.98
64064;BME280;50314;50.618;10.642;2023-10-08T07:23:26;97375.09;;;18.16;30.43
64064;BME280;50314;50.618;10.642;2023-10-08T07:26:00;97363.31;;;18.18;30.16
64064;BME280;50314;50.618;10.642;2023-10-08T07:28:39;97346.31;;;18.19;30.74
64064;BME280;50314;50.618;10.642;2023-10-08T07:31:15;97331.44;;;18.17;30.75
64064;BME280;50314;50.618;10.642;2023-10-08T07:33:46;97312.66;;;18.18;30.51
64064;BME280;50314;50.618;10.642;2023-10-08T07:36:12;97323.03;;;18.21;30.43
64064;BME280;50314;50.618;10.642;2023-10-08T07:38:40;97332.69;;;18.22;30.82
64064;BME280;50314;50.618;10.642;2023-10-08T07:41:10;97352.19;;;18.23;31.03
64064;BME280;50314;50.618;10.642;2023-10-08T07:43:43;97341.41;;;18.24;31.11
64064;BME280;50314;50.618;10.642;2023-10-08T07:46:09;97343.91;;;18.26;31.49
64064;BME280;50314;50.618;10.642;2023-10-08T07:48:35;97342.78;;;18.28;31.41
64064;BME280;50314;50.618;10.642;2023-10-08T07:51:01;97348.66;;;18.32;31.53
64064;BME280;50314;50.618;10.642;2023-10-08T07:53:28;97352.03;;;18.34;31.39
64064;BME280;50314;50.618;10.642;2023-10-08T07:56:14;97357.19;;;18.36;31.54
64064;BME280;50314;50.618;10.642;2023-10-08T07:58:39;97365.91;;;18.38;31.11
64064;BME280;50314;50.618;10.642;2023-10-08T08:01:07;97370.25;;;18.39;31.59
64064;BME280;50314;50.618;10.642;2023-10-08T08:03:34;97359.41;;;18.40;31.26
64064;BME280;50314;50.618;10.642;2023-10-08T08:06:05;97375.28;;;18.42;31.20
64064;BME280;50314;50.618;10.642;2023-10-08T08:08:35;97382.28;;;18.43;31.40
64064;BME280;50314;50.618;10.642;2023-10-08T08:11:08;97394.09;;;18.40;31.67
64064;BME280;50314;50.618;10.642;2023-10-08T08:13:44;97400.84;;;18.44;31.10
64064;BME280;50314;50.618;10.642;2023-10-08T08:16:13;97414.28;;;18.43;31.33
64064;BME280;50314;50.618;10.642;2023-10-08T08:18:46;97420.19;;;18.46;31.14
64064;BME280;50314;50.618;10.642;2023-10-08T08:21:12;97428.19;;;18.46;31.31
64064;BME280;50314;50.618;10.642;2023-10-08T08:23:41;97428.88;;;18.48;31.33
64064;BME280;50314;50.618;10.642;2023-10-08T08:26:07;97424.38;;;18.49;31.36
64064;BME280;50314;50.618;10.642;2023-10-08T08:28:38;97437.44;;;18.52;31.39
64064;BME280;50314;50.618;10.642;2023-10-08T08:31:04;97425.94;;;18.51;31.37
64064;BME280;50314;50.618;10.642;2023-10-08T08:33:33;97420.44;;;18.53;31.05
64064;BME280;50314;50.618;10.642;2023-10-08T08:36:21;97440.41;;;18.49;31.37
64064;BME280;50314;50.618;10.642;2023-10-08T08:38:47;97455.28;;;18.51;31.42
64064;BME280;50314;50.618;10.642;2023-10-08T08:41:13;97464.94;;;18.52;31.26
64064;BME280;50314;50.618;10.642;2023-10-08T08:43:52;97473.78;;;18.53;31.29
64064;BME280;50314;50.618;10.642;2023-10-08T08:46:38;97482.78;;;18.52;30.90
64064;BME280;50314;50.618;10.642;2023-10-08T08:49:06;97494.00;;;18.55;31.24
64064;BME280;50314;50.618;10.642;2023-10-08T08:51:37;97473.50;;;18.56;31.25
64064;BME280;50314;50.618;10.642;2023-10-08T08:54:05;97492.16;;;18.56;31.05
64064;BME280;50314;50.618;10.642;2023-10-08T08:56:38;97489.66;;;18.54;30.87
64064;BME280;50314;50.618;10.642;2023-10-08T08:59:06;97490.34;;;18.57;31.09
64064;BME280;50314;50.618;10.642;2023-10-08T09:01:32;97476.03;;;18.58;30.74
64064;BME280;50314;50.618;10.642;2023-10-08T09:04:02;97471.81;;;18.55;30.99
64064;BME280;50314;50.618;10.642;2023-10-08T09:06:34;97472.66;;;18.55;31.00
64064;BME280;50314;50.618;10.642;2023-10-08T09:09:01;97489.22;;;18.59;31.09
64064;BME280;50314;50.618;10.642;2023-10-08T09:11:59;97488.94;;;18.62;31.02
64064;BME280;50314;50.618;10.642;2023-10-08T09:14:26;97496.78;;;18.64;30.88
64064;BME280;50314;50.618;10.642;2023-10-08T09:16:53;97491.31;;;18.65;31.00
64064;BME280;50314;50.618;10.642;2023-10-08T09:19:23;97518.97;;;18.64;30.44
64064;BME280;50314;50.618;10.642;2023-10-08T09:24:25;97519.81;;;18.65;30.56
64064;BME280;50314;50.618;10.642;2023-10-08T09:26:54;97527.94;;;18.63;30.90
64064;BME280;50314;50.618;10.642;2023-10-08T09:29:23;97527.81;;;18.65;30.87
64064;BME280;50314;50.618;10.642;2023-10-08T09:31:56;97536.78;;;18.64;31.00
64064;BME280;50314;50.618;10.642;2023-10-08T09:34:30;97526.00;;;18.65;30.81
64064;BME280;50314;50.618;10.642;2023-10-08T09:36:57;97527.38;;;18.69;30.57
64064;BME280;50314;50.618;10.642;2023-10-08T09:39:26;97530.88;;;18.70;30.92
64064;BME280;50314;50.618;10.642;2023-10-08T09:41:57;97531.03;;;18.68;30.81
64064;BME280;50314;50.618;10.642;2023-10-08T09:44:24;97535.38;;;18.69;30.46
64064;BME280;50314;50.618;10.642;2023-10-08T09:47:03;97537.34;;;18.67;30.98
64064;BME280;50314;50.618;10.642;2023-10-08T09:52:10;97538.75;;;18.71;31.00
64064;BME280;50314;50.618;10.642;2023-10-08T09:54:59;97547.34;;;18.65;31.13
64064;BME280;50314;50.618;10.642;2023-10-08T09:57:29;97547.59;;;18.72;31.00
64064;BME280;50314;50.618;10.642;2023-10-08T09:59:55;97542.81;;;18.75;30.39
64064;BME280;50314;50.618;10.642;2023-10-08T10:02:23;97546.19;;;18.77;30.48
64064;BME280;50314;50.618;10.642;2023-10-08T10:04:52;97556.75;;;18.79;30.84
64064;BME280;50314;50.618;10.642;2023-10-08T10:07:20;97547.91;;;18.78;30.41
64064;BME280;50314;50.618;10.642;2023-10-08T10:09:50;97552.41;;;18.78;30.73
64064;BME280;50314;50.618;10.642;2023-10-08T10:12:21;97548.88;;;18.77;30.82
64064;BME280;50314;50.618;10.642;2023-10-08T10:14:52;97551.25;;;18.81;30.78
64064;BME280;50314;50.618;10.642;2023-10-08T10:20:01;97570.91;;;18.80;31.06
64064;BME280;50314;50.618;10.642;2023-10-08T10:22:28;97589.16;;;18.84;30.78
64064;BME280;50314;50.618;10.642;2023-10-08T10:24:56;97607.72;;;18.86;30.65
64064;BME280;50314;50.618;10.642;2023-10-08T10:27:22;97620.06;;;18.87;30.47
64064;BME280;50314;50.618;10.642;2023-10-08T10:29:47;97626.25;;;18.87;30.82
64064;BME280;50314;50.618;10.642;2023-10-08T10:32:14;97621.59;;;18.89;30.65
64064;BME280;50314;50.618;10.642;2023-10-08T10:34:42;97629.63;;;18.89;30.50
64064;BME280;50314;50.618;10.642;2023-10-08T10:37:09;97640.13;;;18.91;30.44
64064;BME280;50314;50.618;10.642;2023-10-08T10:39:35;97637.47;;;18.91;30.68
64064;BME280;50314;50.618;10.642;2023-10-08T10:42:05;97653.34;;;18.92;30.48
64064;BME280;50314;50.618;10.642;2023-10-08T10:44:36;97661.38;;;18.92;30.52
64064;BME280;50314;50.618;10.642;2023-10-08T10:47:02;97647.84;;;18.94;30.54
64064;BME280;50314;50.618;10.642;2023-10-08T10:49:40;97627.34;;;18.94;30.60
64064;BME280;50314;50.618;10.642;2023-10-08T10:52:26;97639.19;;;18.92;30.81
64064;BME280;50314;50.618;10.642;2023-10-08T10:55:04;97646.19;;;18.93;30.71
64064;BME280;50314;50.618;10.642;2023-10-08T10:57:50;97662.19;;;18.93;30.74
64064;BME280;50314;50.618;10.642;2023-10-08T11:00:25;97667.97;;;18.98;30.62
64064;BME280;50314;50.618;10.642;2023-10-08T11:03:04;97678.78;;;18.96;30.46
64064;BME280;50314;50.618;10.642;2023-10-08T11:05:37;97671.31;;;19.00;30.57
64064;BME280;50314;50.618;10.642;2023-10-08T11:08:06;97658.81;;;19.00;30.72
64064;BME280;50314;50.618;10.642;2023-10-08T11:10:35;97639.00;;;19.03;30.35
64064;BME280;50314;50.618;10.642;2023-10-08T11:13:05;97602.34;;;19.05;30.43
64064;BME280;50314;50.618;10.642;2023-10-08T11:15:40;97610.91;;;19.09;30.81
64064;BME280;50314;50.618;10.642;2023-10-08T11:18:13;97605.41;;;19.10;30.66
64064;BME280;50314;50.618;10.642;2023-10-08T11:20:43;97609.59;;;19.13;30.35
64064;BME280;50314;50.618;10.642;2023-10-08T11:23:34;97599.22;;;19.10;30.72
64064;BME280;50314;50.618;10.642;2023-10-08T11:26:03;97591.47;;;19.16;30.27
64064;BME280;50314;50.618;10.642;2023-10-08T11:28:38;97600.19;;;19.18;30.74
64064;BME280;50314;50.618;10.642;2023-10-08T11:31:09;97608.88;;;19.20;30.27
64064;BME280;50314;50.618;10.642;2023-10-08T11:33:43;97613.53;;;19.18;30.70
64064;BME280;50314;50.618;10.642;2023-10-08T11:36:23;97621.09;;;19.23;30.30
64064;BME280;50314;50.618;10.642;2023-10-08T11:38:56;97629.94;;;19.23;30.44
64064;BME280;50314;50.618;10.642;2023-10-08T11:41:27;97634.28;;;19.24;30.36
64064;BME280;50314;50.618;10.642;2023-10-08T11:43:54;97635.00;;;19.27;30.55
64064;BME280;50314;50.618;10.642;2023-10-08T11:46:30;97634.28;;;19.24;30.55
64064;BME280;50314;50.618;10.642;2023-10-08T11:49:05;97646.53;;;19.27;30.45
64064;BME280;50314;50.618;10.642;2023-10-08T11:51:35;97636.84;;;19.26;30.30
64064;BME280;50314;50.618;10.642;2023-10-08T11:54:04;97644.00;;;19.25;30.46
64064;BME280;50314;50.618;10.642;2023-10-08T11:56:32;97640.06;;;19.30;30.51
64064;BME280;50314;50.618;10.642;2023-10-08T11:59:01;97630.38;;;19.29;30.25
64064;BME280;50314;50.618;10.642;2023-10-08T12:01:30;97636.38;;;19.31;30.17
64064;BME280;50314;50.618;10.642;2023-10-08T12:04:03;97634.56;;;19.31;30.56
64064;BME280;50314;50.618;10.642;2023-10-08T12:06:29;97624.72;;;19.32;30.27
64064;BME280;50314;50.618;10.642;2023-10-08T12:08:58;97630.22;;;19.30;29.81
64064;BME280;50314;50.618;10.642;2023-10-08T12:11:27;97638.66;;;19.25;29.11
64064;BME280;50314;50.618;10.642;2023-10-08T12:13:57;97633.44;;;19.24;28.71
64064;BME280;50314;50.618;10.642;2023-10-08T12:16:25;97629.28;;;19.21;28.77
64064;BME280;50314;50.618;10.642;2023-10-08T12:18:55;97619.72;;;19.19;28.69
64064;BME280;50314;50.618;10.642;2023-10-08T12:21:30;97611.16;;;19.15;28.53
64064;BME280;50314;50.618;10.642;2023-10-08T12:23:59;97610.16;;;19.16;29.05
64064;BME280;50314;50.618;10.642;2023-10-08T12:26:26;97609.03;;;19.19;28.92
64064;BME280;50314;50.618;10.642;2023-10-08T12:28:52;97618.88;;;19.18;29.17
64064;BME280;50314;50.618;10.642;2023-10-08T12:31:20;97620.56;;;19.19;29.24
64064;BME280;50314;50.618;10.642;2023-10-08T12:33:49;97612.38;;;19.21;29.00
64064;BME280;50314;50.618;10.642;2023-10-08T12:36:19;97615.75;;;19.23;29.37
64064;BME280;50314;50.618;10.642;2023-10-08T12:38:48;97608.28;;;19.27;29.24
64064;BME280;50314;50.618;10.642;2023-10-08T12:41:14;97602.78;;;19.28;29.19
64064;BME280;50314;50.618;10.642;2023-10-08T12:43:41;97597.16;;;19.31;29.65
64064;BME280;50314;50.618;10.642;2023-10-08T12:46:18;97591.69;;;19.33;29.39
64064;BME280;50314;50.618;10.642;2023-10-08T12:48:46;97587.03;;;19.35;29.64
64064;BME280;50314;50.618;10.642;2023-10-08T12:51:18;97579.72;;;19.37;29.46
64064;BME280;50314;50.618;10.642;2023-10-08T12:53:46;97571.44;;;19.40;29.61
64064;BME280;50314;50.618;10.642;2023-10-08T12:56:25;97581.97;;;19.41;29.55
64064;BME280;50314;50.618;10.642;2023-10-08T12:58:58;97581.00;;;19.42;29.89
64064;BME280;50314;50.618;10.642;2023-10-08T13:01:24;97588.72;;;19.45;29.67
64064;BME280;50314;50.618;10.642;2023-10-08T13:03:54;97595.56;;;19.48;29.67
64064;BME280;50314;50.618;10.642;2023-10-08T13:06:25;97597.41;;;19.47;29.67
64064;BME280;50314;50.618;10.642;2023-10-08T13:08:58;97606.25;;;19.48;29.59
64064;BME280;50314;50.618;10.642;2023-10-08T13:11:26;97596.28;;;19.50;29.34
64064;BME280;50314;50.618;10.642;2023-10-08T13:13:53;97600.63;;;19.51;29.80
64064;BME280;50314;50.618;10.642;2023-10-08T13:16:19;97598.53;;;19.45;29.91
64064;BME280;50314;50.618;10.642;2023-10-08T13:18:47;97603.00;;;19.54;29.65
64064;BME280;50314;50.618;10.642;2023-10-08T13:21:13;97595.69;;;19.56;29.62
64064;BME280;50314;50.618;10.642;2023-10-08T13:23:39;97605.25;;;19.59;29.47